Fort Walton Beach, FL (32547)

12:49 PM CDT on August 29, 2015 (GMT -0500)
Forest Heights | | Change Station
CLOSE
Current Station
Personal Weather Station
Location: Fort Walton Beach, FL
Elevation: 72 ft
Nearby Weather Stations

Elev 72 ft 30.46 °N, 86.63 °W | Updated 8 minutes ago

Mostly Cloudy
Mostly Cloudy
83.8 °F
Feels Like 92 °F
N
3.2
Wind Variable Wind from South

Today
High -- | Low -- °F
--% Chance of Precip.
Yesterday
High -- | Low -- °F
Precip. -- in
6:21 AM 7:13 PM
Full, 100% visible
Pressure 30.11 in
Visibility 10.0 miles
Clouds Few 13000 ft
Heat Index 92 °F
Dew Point 75 °F
Humidity 76%
Rainfall 0.15 in
Snow Depth Not available.
UV 11 out of 12
Pollen 6.90 out of 12
Air Quality Not available.
Flu Activity Not available.
METAR KHRT 291658Z AUTO VRB03KT 10SM FEW130 26/23 A3010 RMK AO2 RAE15DZB15E20DZB24E34 SLP194 P0000 T02560225 $
Pressure 30.11 in
Visibility 10.0 miles
Clouds Few 13000 ft
Heat Index 92 °F
Dew Point 75 °F
Humidity 76%
Rainfall 0.15 in
Snow Depth Not available.
UV 11 out of 12
Pollen 6.90 out of 12
Air Quality Not available.
Flu Activity Not available.
METAR KHRT 291658Z AUTO VRB03KT 10SM FEW130 26/23 A3010 RMK AO2 RAE15DZB15E20DZB24E34 SLP194 P0000 T02560225 $

10-Day Weather Forecast

×

Almanac

Astronomy

Aug. 29, 2015 Rise Set
Actual Time
Civil Twilight
Nautical Twilight
Astronomical Twilight
Moon
Length of Visible Light
Length of Day
Tomorrow will be .
, % of the Moon is Illuminated

Today's Extremes

State Highs State Lows

Community

WunderPhotos

Upload Photos

1,850,743 photos uploaded!

WunderBlogs® & News

Nearby

Air Quality

  Air Quality AQ Index Pollutant
Not available.

Snow Depth

Station Depth Elevation

Earthquake Activity

City Distance Mag. Time & Date
Minimum magnitude displayed is 2.5.

Coastal Water Temperatures

Place Temperature

Stations

Nearby Weather Stations

Station Location Temp. Windchill Dew Point Humidity Wind Precip. Elev Updated Type